createdAt,value
2023-01-13T00:02:06.105Z,99.90
2023-01-13T00:04:33.062Z,99.90
2023-01-13T00:06:59.871Z,99.90
2023-01-13T00:09:26.680Z,99.90
2023-01-13T00:11:53.502Z,99.90
2023-01-13T00:14:20.552Z,99.90
2023-01-13T00:16:47.553Z,99.90
2023-01-13T00:19:14.313Z,99.90
2023-01-13T00:21:41.403Z,99.90
2023-01-13T00:24:09.607Z,99.90
2023-01-13T00:26:36.404Z,99.90
2023-01-13T00:29:03.655Z,99.90
2023-01-13T00:31:30.950Z,99.90
2023-01-13T00:33:59.884Z,99.90
2023-01-13T00:36:27.692Z,99.90
2023-01-13T00:38:55.015Z,99.90
2023-01-13T00:41:24.015Z,99.90
2023-01-13T00:43:51.154Z,99.90
2023-01-13T00:46:21.295Z,99.90
2023-01-13T00:48:49.673Z,99.90
2023-01-13T00:51:19.035Z,99.90
2023-01-13T00:53:49.117Z,99.90
2023-01-13T00:56:21.849Z,99.90
2023-01-13T00:58:52.382Z,99.90
2023-01-13T01:01:22.124Z,99.90
2023-01-13T01:03:50.775Z,99.90
2023-01-13T01:06:21.928Z,99.90
2023-01-13T01:08:49.510Z,99.90
2023-01-13T01:11:19.865Z,99.90
2023-01-13T01:13:47.525Z,99.90
2023-01-13T01:16:17.351Z,99.90
2023-01-13T01:18:47.081Z,99.90
2023-01-13T01:21:15.677Z,99.90
2023-01-13T01:23:42.591Z,99.90
2023-01-13T01:26:13.756Z,99.90
2023-01-13T01:28:40.958Z,99.90
2023-01-13T01:31:09.305Z,99.90
2023-01-13T01:33:36.451Z,99.90
2023-01-13T01:36:04.119Z,99.90
2023-01-13T01:38:31.348Z,99.90
2023-01-13T01:40:58.725Z,99.90
2023-01-13T01:44:08.763Z,99.90
2023-01-13T01:46:41.910Z,99.90
2023-01-13T01:49:18.690Z,99.90
2023-01-13T01:52:00.427Z,99.90
2023-01-13T01:54:48.213Z,99.90
2023-01-13T01:57:41.417Z,99.90
2023-01-13T02:00:08.812Z,99.90
2023-01-13T02:02:36.890Z,99.90
2023-01-13T02:05:03.893Z,99.90
2023-01-13T02:07:33.130Z,99.90
2023-01-13T02:10:06.182Z,99.90
2023-01-13T02:12:33.657Z,99.90
2023-01-13T02:15:07.533Z,99.90
2023-01-13T02:18:19.082Z,99.90
2023-01-13T02:21:17.093Z,99.90
2023-01-13T02:24:36.975Z,99.90
2023-01-13T02:27:19.133Z,99.90
2023-01-13T02:30:46.715Z,99.90
2023-01-13T02:33:36.571Z,99.90
2023-01-13T02:36:34.147Z,99.90
2023-01-13T02:39:03.328Z,99.90
2023-01-13T02:42:27.319Z,99.90
2023-01-13T02:45:04.576Z,99.90
2023-01-13T02:47:36.929Z,99.90
2023-01-13T02:50:11.898Z,99.90
2023-01-13T02:52:46.626Z,99.90
2023-01-13T02:55:20.243Z,99.90
2023-01-13T02:57:49.973Z,99.90
2023-01-13T03:00:18.405Z,99.90
2023-01-13T03:02:45.331Z,99.90
2023-01-13T03:05:17.314Z,99.90
2023-01-13T03:07:53.514Z,99.90
2023-01-13T03:10:54.462Z,99.90
2023-01-13T03:13:42.970Z,99.90
2023-01-13T03:16:38.551Z,99.90
2023-01-13T03:19:26.583Z,99.90
2023-01-13T03:22:26.634Z,99.90
2023-01-13T03:25:22.811Z,99.90
2023-01-13T03:27:55.431Z,99.90
2023-01-13T03:30:28.778Z,99.90
2023-01-13T03:33:10.084Z,99.90
2023-01-13T03:35:43.488Z,99.90
2023-01-13T03:38:23.626Z,99.90
2023-01-13T03:40:55.985Z,99.90
2023-01-13T03:43:51.504Z,99.90
2023-01-13T03:46:32.267Z,99.90
2023-01-13T03:49:03.118Z,99.90
2023-01-13T03:51:32.817Z,99.90
2023-01-13T03:54:05.175Z,99.90
2023-01-13T03:56:46.079Z,99.90
2023-01-13T03:59:19.870Z,99.90
2023-01-13T04:02:05.140Z,99.90
2023-01-13T04:04:44.285Z,99.90
2023-01-13T04:07:21.662Z,99.90
2023-01-13T04:10:02.292Z,99.90
2023-01-13T04:12:58.461Z,99.90
2023-01-13T04:15:28.254Z,99.90
2023-01-13T04:18:01.448Z,99.90
2023-01-13T04:20:28.409Z,99.90
2023-01-13T04:22:55.388Z,99.90
2023-01-13T04:25:22.527Z,99.90
2023-01-13T04:27:49.362Z,99.90
2023-01-13T04:30:16.507Z,99.90
2023-01-13T04:32:43.314Z,99.90
2023-01-13T04:35:10.714Z,99.90
2023-01-13T04:37:37.704Z,99.90
2023-01-13T04:40:05.342Z,99.90
2023-01-13T04:42:32.306Z,99.90
2023-01-13T04:44:59.155Z,99.90
2023-01-13T04:47:26.083Z,99.90
2023-01-13T04:49:53.065Z,99.90
2023-01-13T04:52:19.974Z,99.90
2023-01-13T04:54:46.902Z,99.90
2023-01-13T04:57:16.200Z,99.90
2023-01-13T04:59:43.032Z,99.90
2023-01-13T05:02:10.186Z,99.90
2023-01-13T05:04:37.180Z,99.90
2023-01-13T05:07:05.859Z,99.90
2023-01-13T05:09:34.509Z,99.90
2023-01-13T05:12:20.242Z,99.90
2023-01-13T05:15:06.203Z,99.90
2023-01-13T05:17:33.668Z,99.90
2023-01-13T05:20:00.514Z,99.90
2023-01-13T05:22:47.738Z,99.90
2023-01-13T05:25:25.231Z,99.90
2023-01-13T05:27:54.945Z,99.90
2023-01-13T05:30:23.986Z,99.90
2023-01-13T05:32:51.168Z,99.90
2023-01-13T05:35:18.846Z,99.90
2023-01-13T05:37:46.701Z,99.90
2023-01-13T05:40:35.070Z,99.90
2023-01-13T05:43:23.282Z,99.90
2023-01-13T05:46:06.244Z,99.90
2023-01-13T05:48:38.517Z,99.90
2023-01-13T05:51:07.478Z,99.90
2023-01-13T05:53:35.027Z,99.90
2023-01-13T05:56:04.684Z,99.90
2023-01-13T05:58:31.609Z,99.90
2023-01-13T06:01:07.394Z,99.90
2023-01-13T06:03:34.373Z,99.90
2023-01-13T06:06:02.347Z,99.90
2023-01-13T06:08:32.989Z,99.90
2023-01-13T06:11:00.307Z,99.90
2023-01-13T06:13:27.814Z,99.90
2023-01-13T06:15:58.851Z,99.90
2023-01-13T06:18:26.230Z,99.90
2023-01-13T06:20:53.269Z,99.90
2023-01-13T06:23:20.423Z,99.90
2023-01-13T06:26:14.558Z,99.90
2023-01-13T06:28:41.468Z,99.90
2023-01-13T06:31:10.730Z,99.90
2023-01-13T06:33:42.684Z,99.90
2023-01-13T06:36:32.211Z,99.90
2023-01-13T06:39:01.599Z,99.90
2023-01-13T06:41:50.732Z,99.90
2023-01-13T06:44:19.758Z,99.90
2023-01-13T06:46:47.149Z,99.90
2023-01-13T06:49:14.163Z,99.90
2023-01-13T06:51:41.220Z,99.90
2023-01-13T06:54:08.832Z,99.90
2023-01-13T06:56:37.029Z,99.90
2023-01-13T06:59:06.858Z,99.90
2023-01-13T07:01:33.980Z,99.90
2023-01-13T07:04:01.019Z,99.90
2023-01-13T07:06:28.860Z,99.90
2023-01-13T07:08:58.135Z,99.90
2023-01-13T07:11:26.674Z,99.90
2023-01-13T07:14:12.043Z,99.90
2023-01-13T07:16:38.842Z,99.90
2023-01-13T07:19:07.852Z,99.90
2023-01-13T07:21:36.535Z,99.90
2023-01-13T07:24:03.434Z,99.90
2023-01-13T07:26:32.049Z,99.90
2023-01-13T07:28:58.899Z,99.90
2023-01-13T07:31:25.954Z,99.90
2023-01-13T07:33:53.281Z,99.90
2023-01-13T07:36:20.270Z,99.90
2023-01-13T07:38:48.579Z,99.90
2023-01-13T07:41:34.731Z,99.90
2023-01-13T07:44:05.093Z,99.90
2023-01-13T07:46:34.771Z,99.90
2023-01-13T07:49:02.455Z,99.90
2023-01-13T07:51:29.348Z,99.90
2023-01-13T07:53:56.351Z,99.90
2023-01-13T07:56:23.431Z,99.90
2023-01-13T07:58:53.218Z,99.90
2023-01-13T08:01:23.171Z,99.90
2023-01-13T08:03:50.162Z,99.90
2023-01-13T08:06:16.975Z,99.90
2023-01-13T08:08:44.098Z,99.90
2023-01-13T08:11:10.957Z,99.90
2023-01-13T08:13:38.004Z,99.90
2023-01-13T08:16:07.735Z,99.90
2023-01-13T08:18:36.073Z,99.90
2023-01-13T08:21:08.723Z,99.90
2023-01-13T08:23:36.479Z,99.90
2023-01-13T08:26:07.125Z,99.90
2023-01-13T08:28:34.094Z,99.90
2023-01-13T08:31:10.857Z,99.90
2023-01-13T08:33:38.059Z,99.90
2023-01-13T08:36:07.947Z,99.90
2023-01-13T08:38:37.019Z,99.90
2023-01-13T08:41:18.222Z,99.90
2023-01-13T08:43:48.362Z,99.90
2023-01-13T08:46:15.176Z,99.90
2023-01-13T08:48:42.278Z,99.90
2023-01-13T08:51:09.737Z,99.90
2023-01-13T08:53:36.542Z,99.90
2023-01-13T08:56:13.156Z,99.90
2023-01-13T09:10:41.517Z,99.90
2023-01-13T09:13:13.881Z,99.90
2023-01-13T09:15:42.544Z,99.90
2023-01-13T09:18:10.300Z,99.90
2023-01-13T09:20:38.216Z,99.90
2023-01-13T09:23:10.728Z,99.90
2023-01-13T09:25:38.236Z,99.90
2023-01-13T09:28:05.829Z,99.90
2023-01-13T09:30:32.766Z,99.90
2023-01-13T09:33:23.770Z,99.90
2023-01-13T09:35:50.796Z,99.90
2023-01-13T09:38:17.684Z,99.90
2023-01-13T09:40:50.425Z,99.90
2023-01-13T09:43:48.363Z,99.90
2023-01-13T09:46:40.895Z,99.90
2023-01-13T09:49:20.395Z,99.90
2023-01-13T09:51:56.676Z,99.90
2023-01-13T09:54:45.024Z,99.90
2023-01-13T09:57:14.947Z,99.90
2023-01-13T09:59:44.200Z,99.90
2023-01-13T10:02:49.983Z,99.90
2023-01-13T10:05:20.192Z,99.90
2023-01-13T10:07:52.492Z,99.90
2023-01-13T10:10:34.556Z,99.90
2023-01-13T10:41:32.037Z,99.90
2023-01-13T10:44:02.407Z,99.90
2023-01-13T10:46:33.137Z,99.90
2023-01-13T10:49:04.643Z,99.90
2023-01-13T10:51:44.360Z,99.90
2023-01-13T10:54:19.310Z,99.90
2023-01-13T10:56:51.713Z,99.90
2023-01-13T10:59:28.472Z,99.90
2023-01-13T11:02:13.076Z,99.90
2023-01-13T11:04:54.777Z,99.90
2023-01-13T11:07:52.316Z,99.90
2023-01-13T11:10:31.444Z,99.90
2023-01-13T11:13:15.714Z,99.90
2023-01-13T11:16:03.562Z,99.90
2023-01-13T11:19:12.128Z,99.90
2023-01-13T11:21:51.321Z,99.90
2023-01-13T11:24:36.843Z,99.90
2023-01-13T11:27:36.203Z,99.90
2023-01-13T11:30:22.702Z,99.90
2023-01-13T11:33:16.859Z,99.90
2023-01-13T11:36:11.480Z,99.90
2023-01-13T11:39:04.026Z,99.90
2023-01-13T11:41:39.478Z,99.90
2023-01-13T11:44:10.893Z,99.90
2023-01-13T11:46:38.905Z,99.90
2023-01-13T11:49:05.888Z,99.90
2023-01-13T11:52:23.707Z,99.90
2023-01-13T11:55:01.488Z,99.90
2023-01-13T11:57:52.985Z,99.90
2023-01-13T12:00:19.843Z,99.90
2023-01-13T12:03:17.142Z,99.90
2023-01-13T12:06:09.868Z,99.90
2023-01-13T12:08:58.800Z,99.90
2023-01-13T12:12:00.134Z,99.90
2023-01-13T12:14:42.486Z,99.90
2023-01-13T12:17:22.817Z,99.90
2023-01-13T12:19:51.352Z,99.90
2023-01-13T12:22:27.991Z,99.90
2023-01-13T12:25:04.069Z,99.90
2023-01-13T12:27:54.890Z,99.90
2023-01-13T12:30:22.831Z,99.90
2023-01-13T12:32:50.508Z,99.90
2023-01-13T12:35:27.264Z,99.90
2023-01-13T12:38:24.182Z,99.90
2023-01-13T12:41:11.744Z,98.70
2023-01-13T12:44:06.961Z,96.10
2023-01-13T12:46:53.152Z,98.10
2023-01-13T12:49:21.419Z,98.10
2023-01-13T12:51:54.249Z,98.40
2023-01-13T12:54:39.035Z,98.60
2023-01-13T12:57:27.115Z,97.30
2023-01-13T13:00:00.270Z,97.30
2023-01-13T13:02:36.838Z,96.70
2023-01-13T13:05:24.899Z,98.00
2023-01-13T13:08:16.037Z,97.10
2023-01-13T13:10:56.209Z,96.60
2023-01-13T13:13:43.590Z,97.40
2023-01-13T13:16:25.928Z,98.20
2023-01-13T13:19:18.131Z,99.90
2023-01-13T13:22:26.997Z,99.90
2023-01-13T13:24:57.646Z,99.90
2023-01-13T13:28:02.978Z,99.90
2023-01-13T13:30:39.400Z,99.90
2023-01-13T13:33:24.879Z,99.90
2023-01-13T13:36:09.595Z,99.90
2023-01-13T13:39:24.388Z,99.90
2023-01-13T13:42:14.417Z,99.90
2023-01-13T13:45:04.990Z,99.90
2023-01-13T13:47:37.018Z,99.90
2023-01-13T13:50:21.571Z,99.90
2023-01-13T13:53:09.442Z,99.90
2023-01-13T13:55:38.593Z,99.90
2023-01-13T13:58:13.913Z,99.90
2023-01-13T14:00:40.782Z,99.90
2023-01-13T14:03:28.582Z,99.90
2023-01-13T14:06:01.111Z,99.90
2023-01-13T14:08:36.966Z,99.90
2023-01-13T14:11:27.696Z,99.90
2023-01-13T14:14:05.906Z,99.90
2023-01-13T14:16:36.200Z,99.90
2023-01-13T14:19:03.472Z,99.90
2023-01-13T14:21:30.878Z,99.90
2023-01-13T14:24:14.149Z,99.90
2023-01-13T14:26:41.509Z,99.90
2023-01-13T14:29:16.346Z,99.90
2023-01-13T14:31:44.255Z,99.90
2023-01-13T14:34:31.751Z,99.90
2023-01-13T14:37:00.066Z,99.90
2023-01-13T14:39:39.580Z,99.90
2023-01-13T14:42:16.509Z,99.90
2023-01-13T14:44:47.186Z,99.90
2023-01-13T14:47:23.168Z,99.90
2023-01-13T14:50:10.243Z,99.90
2023-01-13T14:52:46.505Z,99.90
2023-01-13T14:55:19.193Z,99.90
2023-01-13T14:57:46.972Z,99.90
2023-01-13T15:00:13.737Z,99.90
2023-01-13T15:02:53.419Z,99.90
2023-01-13T15:05:20.270Z,99.90
2023-01-13T15:08:20.125Z,99.90
2023-01-13T15:10:54.369Z,99.90
2023-01-13T15:13:46.247Z,99.90
2023-01-13T15:16:25.976Z,99.90
2023-01-13T15:18:54.682Z,99.90
2023-01-13T15:21:21.928Z,99.90
2023-01-13T15:23:49.140Z,99.90
2023-01-13T15:26:20.753Z,99.90
2023-01-13T15:28:48.762Z,99.90
2023-01-13T15:31:16.114Z,99.90
2023-01-13T15:33:43.422Z,99.90
2023-01-13T15:36:30.943Z,99.90
2023-01-13T15:38:59.176Z,99.90
2023-01-13T15:41:45.051Z,99.90
2023-01-13T15:44:31.512Z,99.90
2023-01-13T15:47:01.367Z,99.90
2023-01-13T15:49:39.366Z,99.90
2023-01-13T15:52:23.540Z,99.90
2023-01-13T15:54:52.065Z,99.90
2023-01-13T15:57:27.562Z,99.90
2023-01-13T16:00:00.385Z,99.90
2023-01-13T16:02:27.533Z,99.90
2023-01-13T16:04:54.932Z,99.90
2023-01-13T16:07:24.241Z,99.90
2023-01-13T16:09:51.484Z,99.90
2023-01-13T16:12:18.337Z,99.90
2023-01-13T16:14:45.253Z,99.90
2023-01-13T16:17:19.452Z,99.90
2023-01-13T16:19:46.523Z,99.90
2023-01-13T16:22:15.423Z,99.90
2023-01-13T16:24:42.755Z,99.90
2023-01-13T16:27:15.671Z,99.90
2023-01-13T16:29:43.635Z,99.90
2023-01-13T16:32:10.745Z,99.90
2023-01-13T16:34:37.723Z,99.90
2023-01-13T16:37:06.466Z,99.90
2023-01-13T16:39:33.502Z,99.90
2023-01-13T16:42:00.665Z,99.90
2023-01-13T16:44:27.904Z,99.90
2023-01-13T16:46:54.858Z,99.90
2023-01-13T16:49:23.327Z,99.90
2023-01-13T16:51:50.562Z,99.90
2023-01-13T16:54:17.544Z,99.90
2023-01-13T16:56:44.587Z,99.90
2023-01-13T17:11:24.810Z,99.90
2023-01-13T17:13:51.762Z,99.90
2023-01-13T17:16:21.494Z,99.90
2023-01-13T17:18:48.814Z,99.90
2023-01-13T17:21:16.813Z,99.90
2023-01-13T17:23:44.007Z,99.90
2023-01-13T17:26:38.211Z,99.90
2023-01-13T17:29:07.405Z,99.90
2023-01-13T17:31:35.547Z,99.90
2023-01-13T17:34:03.757Z,99.90
2023-01-13T17:36:31.066Z,99.90
2023-01-13T17:38:58.260Z,99.90
2023-01-13T17:41:25.875Z,99.90
2023-01-13T17:43:53.206Z,99.90
2023-01-13T17:46:20.778Z,99.90
2023-01-13T17:48:48.051Z,99.90
2023-01-13T17:51:16.548Z,99.90
2023-01-13T17:53:45.667Z,99.90
2023-01-13T17:56:14.704Z,99.90
2023-01-13T17:58:41.950Z,99.90
2023-01-13T18:01:15.423Z,99.90
2023-01-13T18:03:42.504Z,99.90
2023-01-13T18:06:16.283Z,99.90
2023-01-13T18:08:43.225Z,99.90
2023-01-13T18:11:10.072Z,99.90
2023-01-13T18:13:37.504Z,99.90
2023-01-13T18:16:13.537Z,99.90
2023-01-13T18:18:42.470Z,99.90
2023-01-13T18:21:44.444Z,99.90
2023-01-13T18:24:32.493Z,99.90
2023-01-13T18:27:17.987Z,99.90
2023-01-13T18:29:46.222Z,99.90
2023-01-13T18:32:14.123Z,99.90
2023-01-13T18:34:41.014Z,99.90
2023-01-13T18:37:09.811Z,99.90
2023-01-13T18:39:39.728Z,99.90
2023-01-13T18:42:27.127Z,99.90
2023-01-13T18:44:56.138Z,99.90
2023-01-13T18:47:28.675Z,99.90
2023-01-13T18:49:56.936Z,99.90
2023-01-13T18:52:24.596Z,99.90
2023-01-13T18:54:51.791Z,99.90
2023-01-13T18:57:18.815Z,99.90
2023-01-13T18:59:45.681Z,99.90
2023-01-13T19:02:20.957Z,99.90
2023-01-13T19:04:48.105Z,99.90
2023-01-13T19:07:22.307Z,99.90
2023-01-13T19:09:52.147Z,99.90
2023-01-13T20:11:37.895Z,99.90
2023-01-13T20:14:04.733Z,99.90
2023-01-13T20:16:51.713Z,99.90
2023-01-13T20:19:18.382Z,99.90
2023-01-13T20:21:45.366Z,99.90
2023-01-13T20:24:17.101Z,99.90
2023-01-13T20:26:45.792Z,99.90
2023-01-13T20:29:13.005Z,99.90
2023-01-13T20:31:39.928Z,99.90
2023-01-13T20:34:06.818Z,99.90
2023-01-13T20:36:37.424Z,99.90
2023-01-13T20:39:06.604Z,99.90
2023-01-13T20:44:36.764Z,99.90
2023-01-13T20:47:03.851Z,99.90
2023-01-13T20:49:31.249Z,99.90
2023-01-13T20:51:59.375Z,99.90
2023-01-13T20:54:26.410Z,99.90
2023-01-13T20:56:53.743Z,99.90
2023-01-13T20:59:20.895Z,99.90
2023-01-13T21:01:47.864Z,99.90
2023-01-13T21:04:14.802Z,99.90
2023-01-13T21:06:41.781Z,99.90
2023-01-13T21:09:08.997Z,99.90
2023-01-13T21:33:48.507Z,99.90
2023-01-13T21:36:15.948Z,99.90
2023-01-13T21:38:43.113Z,99.90
2023-01-13T21:41:13.057Z,99.90
2023-01-13T21:43:58.811Z,99.90
2023-01-13T21:46:44.302Z,99.90
2023-01-13T21:49:11.334Z,99.90
2023-01-13T21:51:38.136Z,99.90
2023-01-13T21:54:05.117Z,99.90
2023-01-13T21:56:32.082Z,99.90
2023-01-13T21:58:59.006Z,99.90
2023-01-13T22:01:26.093Z,99.90
2023-01-13T22:04:11.847Z,99.90
2023-01-13T22:06:39.024Z,99.90
2023-01-13T22:09:06.308Z,99.90
2023-01-13T22:11:33.643Z,99.90
2023-01-13T22:14:07.364Z,99.90
2023-01-13T22:16:49.483Z,99.90
2023-01-13T22:19:18.321Z,99.90
2023-01-13T22:21:45.351Z,99.90
2023-01-13T22:24:12.280Z,99.90
2023-01-13T22:26:39.251Z,99.90
2023-01-13T22:29:06.213Z,99.90
2023-01-13T22:31:33.298Z,99.90
2023-01-13T22:34:00.165Z,99.90
2023-01-13T22:36:27.144Z,99.90
2023-01-13T22:39:00.486Z,99.90
2023-01-13T22:41:27.486Z,99.90
2023-01-13T22:43:54.341Z,99.90
2023-01-13T22:46:22.884Z,99.90
2023-01-13T22:48:53.796Z,99.90
2023-01-13T22:51:22.704Z,99.90
2023-01-13T22:53:49.612Z,99.90
2023-01-13T22:56:18.761Z,99.90
2023-01-13T22:58:45.773Z,99.90
2023-01-13T23:01:17.361Z,99.90
2023-01-13T23:03:46.446Z,99.90
2023-01-13T23:06:14.430Z,99.90
2023-01-13T23:08:41.600Z,99.90
2023-01-13T23:11:15.985Z,99.90
2023-01-13T23:13:43.408Z,99.90
2023-01-13T23:16:16.608Z,99.90
2023-01-13T23:18:45.368Z,99.90
2023-01-13T23:21:14.416Z,99.90
2023-01-13T23:23:41.775Z,99.90
2023-01-13T23:26:09.498Z,99.90
2023-01-13T23:28:37.236Z,99.90
2023-01-13T23:31:19.051Z,99.90
2023-01-13T23:33:46.268Z,99.90
2023-01-13T23:36:15.953Z,99.90
2023-01-13T23:38:43.519Z,99.90
2023-01-13T23:41:13.378Z,99.90
2023-01-13T23:43:40.273Z,99.90
2023-01-13T23:46:09.848Z,99.90
2023-01-13T23:48:37.268Z,99.90
2023-01-13T23:51:07.404Z,99.90
2023-01-13T23:53:39.954Z,99.90
2023-01-13T23:56:10.718Z,99.90
2023-01-13T23:58:37.541Z,99.90
